Time;durP1;ratioP1;P1;durP2;ratioP2;P2;SDS_P1;SDS_P2;PMS_P1;PMS_P2;Temp;Humidity;BMP_temperature;BMP_pressure;BME280_temperature;BME280_humidity;BME280_pressure;Samples;Min_cycle;Max_cycle;Signal;HPM_P1;HPM_P2
2023/09/12 00:01:09;;;;;;;9.68;4.43;;;18.80;99.90;;;;;;7304214;32;20509;-57
2023/09/12 00:05:11;;;;;;;6.75;4.43;;;18.80;99.90;;;;;;7301425;32;20151;-55
2023/09/12 00:09:12;;;;;;;6.40;4.40;;;18.70;99.90;;;;;;7307034;32;35515;-56
2023/09/12 00:13:14;;;;;;;7.82;4.68;;;18.70;99.90;;;;;;7304587;32;20139;-55
2023/09/12 00:17:16;;;;;;;5.85;4.40;;;18.70;99.90;;;;;;7306745;32;20461;-55
2023/09/12 00:21:18;;;;;;;9.32;4.78;;;18.60;99.90;;;;;;7305669;32;20169;-56
2023/09/12 00:25:20;;;;;;;13.05;5.25;;;18.60;99.90;;;;;;7289105;32;20133;-56
2023/09/12 00:29:22;;;;;;;6.82;5.05;;;18.80;99.90;;;;;;7307505;32;20111;-55
2023/09/12 00:33:24;;;;;;;9.35;4.95;;;18.90;99.90;;;;;;7305102;32;20100;-57
2023/09/12 00:37:25;;;;;;;9.30;6.18;;;18.90;99.90;;;;;;7308279;32;20120;-55
2023/09/12 00:41:27;;;;;;;8.00;6.65;;;18.70;99.90;;;;;;7303668;32;20239;-56
2023/09/12 00:45:29;;;;;;;8.20;6.68;;;18.70;99.90;;;;;;7306587;32;20526;-57
2023/09/12 00:49:32;;;;;;;11.98;7.87;;;18.70;99.90;;;;;;7308233;32;20111;-56
2023/09/12 00:53:34;;;;;;;11.07;7.93;;;18.70;99.90;;;;;;7305964;32;20592;-57
2023/09/12 00:57:36;;;;;;;12.15;7.95;;;18.70;99.90;;;;;;7304250;32;20107;-55
2023/09/12 01:01:37;;;;;;;8.55;6.60;;;18.80;99.90;;;;;;7315847;32;20524;-56
2023/09/12 01:05:42;;;;;;;8.82;6.85;;;18.90;99.90;;;;;;7303081;32;20219;-56
2023/09/12 01:09:44;;;;;;;10.15;6.70;;;18.90;99.90;;;;;;7305596;32;20165;-56
2023/09/12 01:13:46;;;;;;;9.43;7.30;;;19.00;99.90;;;;;;7304934;32;20095;-56
2023/09/12 01:17:48;;;;;;;9.40;7.60;;;18.90;99.90;;;;;;7302645;32;20197;-57
2023/09/12 01:22:15;;;;;;;8.98;7.80;;;18.80;99.90;;;;;;7303727;32;20149;-56
2023/09/12 01:26:29;;;;;;;12.83;10.93;;;18.80;99.90;;;;;;7304210;32;20131;-56
2023/09/12 01:30:34;;;;;;;13.25;10.75;;;18.90;99.90;;;;;;7303541;32;20099;-56
2023/09/12 01:34:36;;;;;;;17.33;12.45;;;18.90;99.90;;;;;;7303576;32;20249;-56
2023/09/12 01:38:38;;;;;;;16.77;12.55;;;18.90;99.90;;;;;;7305599;32;20127;-56
2023/09/12 01:42:46;;;;;;;14.57;11.07;;;18.90;99.90;;;;;;7303924;32;20522;-55
2023/09/12 01:46:49;;;;;;;17.65;13.62;;;18.90;99.90;;;;;;7298752;32;20270;-57
2023/09/12 01:50:51;;;;;;;19.33;14.45;;;18.90;99.90;;;;;;7303608;32;20142;-56
2023/09/12 01:54:55;;;;;;;23.42;17.87;;;19.00;99.90;;;;;;7300276;32;20099;-56
2023/09/12 01:58:57;;;;;;;19.50;14.52;;;18.80;99.90;;;;;;7307550;32;20170;-55
2023/09/12 02:02:58;;;;;;;23.42;15.60;;;18.80;99.90;;;;;;7296604;32;20104;-55
2023/09/12 02:07:00;;;;;;;21.85;14.80;;;18.80;99.90;;;;;;7302492;32;20548;-55
2023/09/12 02:11:02;;;;;;;26.98;19.40;;;18.70;99.90;;;;;;7299091;32;20133;-56
2023/09/12 02:15:04;;;;;;;24.55;18.08;;;18.70;99.90;;;;;;7303171;32;20103;-55
2023/09/12 02:19:06;;;;;;;27.52;20.23;;;18.60;99.90;;;;;;7304685;32;20522;-56
2023/09/12 02:23:08;;;;;;;27.98;19.87;;;18.60;99.90;;;;;;7299771;32;20220;-57
2023/09/12 02:27:10;;;;;;;26.60;17.35;;;18.60;99.90;;;;;;7303676;32;20111;-56
2023/09/12 02:31:12;;;;;;;24.75;18.65;;;18.60;99.90;;;;;;7303743;32;20515;-55
2023/09/12 02:35:14;;;;;;;26.83;18.23;;;18.70;99.90;;;;;;7301654;32;20103;-55
2023/09/12 02:39:15;;;;;;;20.70;15.57;;;18.70;99.90;;;;;;7301332;32;20171;-55
2023/09/12 02:43:17;;;;;;;24.23;18.58;;;18.70;99.90;;;;;;7304471;32;20505;-55
2023/09/12 02:47:19;;;;;;;28.38;19.10;;;18.70;99.90;;;;;;7309746;32;20251;-57
2023/09/12 02:51:21;;;;;;;20.85;15.60;;;18.60;99.90;;;;;;7298080;32;20241;-55
2023/09/12 02:55:22;;;;;;;25.75;17.55;;;18.60;99.90;;;;;;7305359;32;20267;-56
2023/09/12 02:59:24;;;;;;;30.90;20.98;;;18.60;99.90;;;;;;7296963;32;20541;-55
2023/09/12 03:03:26;;;;;;;32.17;21.35;;;18.50;99.90;;;;;;7288927;32;20713;-55
2023/09/12 03:07:30;;;;;;;28.83;20.45;;;18.50;99.90;;;;;;7299165;32;20448;-56
2023/09/12 03:11:31;;;;;;;27.02;21.23;;;18.50;99.90;;;;;;7287342;32;20177;-56
2023/09/12 03:15:37;;;;;;;28.20;21.30;;;18.50;99.90;;;;;;7297929;32;20248;-57
2023/09/12 03:19:39;;;;;;;33.53;24.25;;;18.50;99.90;;;;;;7303518;32;20191;-56
2023/09/12 03:23:41;;;;;;;25.12;20.70;;;18.50;99.90;;;;;;7300561;32;20333;-55
2023/09/12 03:27:43;;;;;;;35.97;25.58;;;18.50;99.90;;;;;;7305432;32;20120;-56
2023/09/12 03:31:44;;;;;;;33.83;26.23;;;18.40;99.90;;;;;;7299766;32;20489;-55
2023/09/12 03:35:46;;;;;;;30.88;23.60;;;18.40;99.90;;;;;;7302969;32;20108;-56
2023/09/12 03:39:48;;;;;;;33.83;23.55;;;18.50;99.90;;;;;;7302267;32;20131;-55
2023/09/12 03:43:49;;;;;;;34.08;24.60;;;18.50;99.90;;;;;;7300665;32;20751;-56
2023/09/12 03:47:51;;;;;;;29.67;23.27;;;18.50;99.90;;;;;;7299832;32;20155;-55
2023/09/12 03:51:53;;;;;;;37.13;25.60;;;18.30;99.90;;;;;;7300308;32;20167;-56
2023/09/12 03:55:55;;;;;;;31.10;23.23;;;18.40;99.90;;;;;;7306825;32;20588;-55
2023/09/12 03:59:57;;;;;;;29.60;21.70;;;18.40;99.90;;;;;;7299960;32;20353;-55
2023/09/12 04:03:59;;;;;;;26.17;18.15;;;18.30;99.90;;;;;;7297397;32;20140;-56
2023/09/12 04:08:05;;;;;;;26.83;19.17;;;18.30;99.90;;;;;;7299400;32;20474;-56
2023/09/12 04:12:08;;;;;;;21.02;17.15;;;18.30;99.90;;;;;;7297004;32;20234;-55
2023/09/12 04:16:10;;;;;;;23.98;17.33;;;18.30;99.90;;;;;;7299751;32;20231;-55
2023/09/12 04:20:15;;;;;;;23.05;17.35;;;18.30;99.90;;;;;;7301970;32;20142;-55
2023/09/12 04:24:17;;;;;;;22.73;16.40;;;18.30;99.90;;;;;;7298754;32;20491;-55
2023/09/12 04:28:19;;;;;;;21.12;16.48;;;18.30;99.90;;;;;;7300095;32;20202;-55
2023/09/12 04:32:23;;;;;;;19.85;14.93;;;18.30;99.90;;;;;;7303531;32;20162;-56
2023/09/12 04:36:25;;;;;;;21.77;14.15;;;18.30;99.90;;;;;;7307935;32;20096;-56
2023/09/12 04:40:27;;;;;;;17.40;13.68;;;18.30;99.90;;;;;;7305297;32;20192;-56
2023/09/12 04:44:29;;;;;;;17.80;13.35;;;18.30;99.90;;;;;;7280960;32;20199;-55
2023/09/12 04:48:31;;;;;;;14.20;12.32;;;18.30;99.90;;;;;;7302415;32;20161;-56
2023/09/12 04:52:33;;;;;;;17.10;12.90;;;18.40;99.90;;;;;;7303894;32;20111;-56
2023/09/12 04:56:35;;;;;;;17.42;12.40;;;18.40;99.90;;;;;;7296916;32;20496;-55
2023/09/12 05:00:39;;;;;;;14.18;12.05;;;18.40;99.90;;;;;;7302838;32;20458;-56
2023/09/12 05:04:41;;;;;;;15.85;10.88;;;18.50;99.90;;;;;;7298253;32;20112;-56
2023/09/12 05:08:43;;;;;;;17.50;10.48;;;18.40;99.90;;;;;;7301923;32;20108;-55
2023/09/12 05:12:45;;;;;;;14.05;11.12;;;18.50;99.90;;;;;;7307155;32;20367;-56
2023/09/12 05:16:47;;;;;;;13.93;10.93;;;18.50;99.90;;;;;;7302881;32;20758;-55
2023/09/12 05:20:49;;;;;;;12.37;8.85;;;18.40;99.90;;;;;;7303508;32;20107;-56
2023/09/12 05:24:51;;;;;;;13.50;8.70;;;18.60;99.90;;;;;;7294955;32;20584;-55
2023/09/12 05:28:53;;;;;;;10.13;7.97;;;18.60;99.90;;;;;;7290650;32;20103;-56
2023/09/12 05:32:54;;;;;;;12.48;7.50;;;18.60;99.90;;;;;;7298206;32;20184;-55
2023/09/12 05:36:57;;;;;;;12.05;7.85;;;18.60;99.90;;;;;;7298580;32;20169;-56
2023/09/12 05:40:58;;;;;;;8.15;6.62;;;18.60;99.90;;;;;;7290201;32;20218;-56
2023/09/12 05:45:00;;;;;;;10.25;7.65;;;18.60;99.90;;;;;;7299204;32;20261;-55
2023/09/12 05:49:03;;;;;;;13.68;6.75;;;18.70;99.90;;;;;;7293998;32;20195;-58
2023/09/12 05:53:05;;;;;;;15.95;13.32;;;18.70;99.90;;;;;;7297993;32;20183;-59
2023/09/12 05:57:07;;;;;;;23.25;14.63;;;18.90;99.90;;;;;;7300418;32;20092;-59
2023/09/12 06:01:09;;;;;;;25.02;18.40;;;19.00;99.90;;;;;;7299777;32;20100;-59
2023/09/12 06:05:11;;;;;;;23.85;19.62;;;19.00;99.90;;;;;;7303820;32;20185;-63
2023/09/12 06:09:13;;;;;;;34.22;24.65;;;19.20;99.90;;;;;;7297197;32;20095;-59
2023/09/12 06:13:14;;;;;;;36.22;24.63;;;19.20;99.90;;;;;;7299280;32;20150;-55
2023/09/12 06:17:16;;;;;;;27.52;19.45;;;19.10;99.90;;;;;;7295156;32;20115;-55
2023/09/12 06:21:18;;;;;;;24.55;18.35;;;18.90;99.90;;;;;;7300489;32;20119;-56
2023/09/12 06:25:19;;;;;;;20.20;14.93;;;18.60;99.90;;;;;;7302072;32;20588;-56
2023/09/12 06:29:21;;;;;;;19.85;13.35;;;18.60;99.90;;;;;;7301829;32;20119;-55
2023/09/12 06:33:25;;;;;;;16.75;12.75;;;18.20;99.90;;;;;;7299165;32;20122;-55
2023/09/12 06:37:26;;;;;;;12.68;8.35;;;18.20;99.90;;;;;;7296930;32;20230;-55
2023/09/12 06:41:28;;;;;;;12.50;8.68;;;18.10;99.90;;;;;;7296084;32;20592;-55
2023/09/12 06:45:32;;;;;;;16.20;8.60;;;18.00;99.90;;;;;;7298519;32;20465;-55
2023/09/12 06:49:36;;;;;;;13.18;9.38;;;18.00;99.90;;;;;;7299683;32;20199;-55
2023/09/12 06:53:38;;;;;;;12.50;9.63;;;17.90;99.90;;;;;;7299311;32;20100;-55
2023/09/12 06:57:40;;;;;;;12.00;9.05;;;17.90;99.90;;;;;;7301366;32;20224;-56
2023/09/12 07:01:43;;;;;;;15.82;8.10;;;17.90;99.90;;;;;;7296062;32;20126;-56
2023/09/12 07:05:45;;;;;;;10.63;7.75;;;17.70;99.90;;;;;;7295327;32;20174;-55
2023/09/12 07:09:46;;;;;;;9.38;6.82;;;17.70;99.90;;;;;;7299777;32;20449;-55
2023/09/12 07:13:48;;;;;;;10.38;6.68;;;17.80;99.90;;;;;;7299076;32;20222;-56
2023/09/12 07:17:53;;;;;;;8.75;6.47;;;17.80;99.90;;;;;;7299739;32;20211;-56
2023/09/12 07:21:55;;;;;;;9.32;6.28;;;17.80;99.90;;;;;;7296154;32;20196;-56
2023/09/12 07:25:58;;;;;;;10.30;6.57;;;18.00;99.90;;;;;;7297753;32;20118;-56
2023/09/12 07:29:59;;;;;;;10.18;6.75;;;18.00;99.90;;;;;;7299640;32;20214;-57
2023/09/12 07:34:02;;;;;;;8.57;5.85;;;18.20;99.90;;;;;;7300132;32;20111;-56
2023/09/12 07:38:06;;;;;;;7.40;5.22;;;18.40;99.90;;;;;;7298969;32;20258;-56
2023/09/12 07:42:07;;;;;;;9.00;5.30;;;18.60;99.90;;;;;;7302073;32;20497;-55
2023/09/12 07:46:09;;;;;;;4.93;4.20;;;18.80;99.90;;;;;;7295244;32;20132;-55
2023/09/12 07:50:11;;;;;;;7.20;4.90;;;19.00;99.90;;;;;;7295832;32;20612;-56
2023/09/12 07:54:13;;;;;;;8.20;4.43;;;19.10;99.90;;;;;;7293542;32;20198;-55
2023/09/12 07:58:18;;;;;;;5.70;4.70;;;19.20;99.90;;;;;;7291433;32;20112;-56
2023/09/12 08:02:20;;;;;;;8.02;4.50;;;19.20;99.90;;;;;;7297397;32;20324;-56
2023/09/12 08:06:23;;;;;;;6.68;4.45;;;19.20;99.90;;;;;;7300938;32;20115;-55
2023/09/12 08:10:25;;;;;;;6.20;4.18;;;19.30;99.90;;;;;;7303643;32;20639;-57
2023/09/12 08:14:27;;;;;;;7.90;3.90;;;19.30;99.90;;;;;;7302924;32;20497;-55
2023/09/12 08:18:30;;;;;;;4.82;3.00;;;19.40;99.90;;;;;;7303386;32;20599;-56
2023/09/12 08:22:32;;;;;;;7.37;3.87;;;19.40;99.90;;;;;;7299589;32;20100;-57
2023/09/12 08:26:34;;;;;;;5.05;3.03;;;19.40;99.90;;;;;;7302473;32;20123;-55
2023/09/12 08:30:36;;;;;;;8.52;3.30;;;19.00;99.90;;;;;;7301917;32;20558;-56
2023/09/12 08:34:37;;;;;;;4.05;2.05;;;19.10;99.90;;;;;;7300662;32;20231;-56
2023/09/12 08:38:39;;;;;;;5.20;2.55;;;19.20;99.90;;;;;;7302139;32;20211;-55
2023/09/12 08:42:43;;;;;;;2.62;1.77;;;19.50;99.90;;;;;;7302950;32;20145;-56
2023/09/12 08:46:45;;;;;;;3.62;1.75;;;20.20;99.90;;;;;;7300909;32;20108;-56
2023/09/12 08:50:49;;;;;;;5.50;1.67;;;20.70;99.90;;;;;;7296136;32;20119;-56
2023/09/12 08:54:51;;;;;;;3.33;1.75;;;21.30;99.90;;;;;;7299157;32;20517;-56
2023/09/12 08:58:54;;;;;;;2.37;1.35;;;21.50;99.90;;;;;;7300344;32;20484;-57
2023/09/12 09:02:56;;;;;;;2.95;1.23;;;21.40;99.90;;;;;;7298812;32;20324;-56
2023/09/12 09:06:59;;;;;;;4.03;1.52;;;22.20;99.90;;;;;;7300811;32;20153;-56
2023/09/12 09:11:06;;;;;;;1.87;1.15;;;22.80;99.90;;;;;;7304091;32;20276;-56
2023/09/12 09:15:24;;;;;;;;;;;23.30;99.90;;;;;;7299315;32;20099;-56
2023/09/12 09:19:45;;;;;;;3.00;1.20;;;23.60;99.90;;;;;;7300340;32;20011;-57
2023/09/12 09:23:47;;;;;;;3.83;1.10;;;24.40;99.90;;;;;;7298402;32;20147;-57
2023/09/12 09:27:49;;;;;;;2.95;1.00;;;24.90;99.90;;;;;;7297375;32;20215;-57
2023/09/12 09:31:51;;;;;;;2.72;1.10;;;25.70;99.90;;;;;;7298652;32;20254;-56
2023/09/12 09:36:05;;;;;;;2.67;0.98;;;25.80;99.90;;;;;;7303217;32;20505;-56
2023/09/12 09:40:08;;;;;;;2.83;1.00;;;25.90;99.90;;;;;;7297817;32;20674;-56
2023/09/12 09:44:10;;;;;;;1.65;0.77;;;26.50;99.90;;;;;;7298701;32;20104;-57
2023/09/12 09:48:18;;;;;;;2.62;1.08;;;26.50;99.90;;;;;;7299160;32;20577;-57
2023/09/12 09:52:29;;;;;;;3.15;1.08;;;25.90;99.90;;;;;;7301545;32;20149;-57
2023/09/12 09:56:32;;;;;;;1.37;0.90;;;26.50;99.90;;;;;;7287319;32;20337;-56
2023/09/12 10:00:36;;;;;;;3.62;0.90;;;26.80;99.90;;;;;;7298299;32;20100;-56
2023/09/12 10:04:38;;;;;;;2.03;0.88;;;28.10;99.90;;;;;;7300630;32;20107;-57
2023/09/12 10:08:45;;;;;;;1.05;0.90;;;29.10;99.90;;;;;;7299334;32;20179;-56
2023/09/12 10:12:56;;;;;;;0.80;0.70;;;28.50;99.90;;;;;;7299734;32;20205;-57
2023/09/12 10:17:01;;;;;;;1.23;0.88;;;29.10;99.90;;;;;;7298191;32;20221;-57
2023/09/12 10:21:14;;;;;;;1.45;0.88;;;29.70;99.90;;;;;;7293042;32;20233;-55
2023/09/12 10:25:16;;;;;;;3.10;0.90;;;30.00;99.90;;;;;;7294720;32;20524;-56
2023/09/12 10:29:18;;;;;;;1.50;0.80;;;29.50;99.90;;;;;;7287008;32;20119;-55
2023/09/12 10:33:20;;;;;;;1.62;0.90;;;29.20;99.90;;;;;;7299672;32;20483;-55
2023/09/12 10:37:25;;;;;;;1.98;0.95;;;28.10;99.90;;;;;;7298719;32;20092;-55
2023/09/12 10:41:27;;;;;;;1.95;0.80;;;27.40;99.90;;;;;;7297428;32;20209;-55
2023/09/12 10:45:33;;;;;;;1.42;0.70;;;27.30;99.90;;;;;;7293878;32;20191;-55
2023/09/12 10:49:35;;;;;;;2.97;1.05;;;26.80;99.90;;;;;;7294555;32;20348;-55
2023/09/12 10:53:37;;;;;;;2.67;1.15;;;26.50;99.90;;;;;;7295564;32;20104;-56
2023/09/12 10:58:02;;;;;;;2.30;1.17;;;26.10;99.90;;;;;;7296742;32;20309;-55
2023/09/12 11:02:27;;;;;;;3.70;1.30;;;26.00;99.90;;;;;;7298432;32;20477;-56
2023/09/12 11:06:30;;;;;;;2.70;1.30;;;26.70;99.90;;;;;;7296493;32;20272;-56
2023/09/12 11:10:32;;;;;;;2.42;1.58;;;26.90;99.90;;;;;;7298589;32;20314;-53
2023/09/12 11:14:34;;;;;;;2.85;1.70;;;26.50;99.90;;;;;;7293958;32;20236;-56
2023/09/12 11:19:15;;;;;;;3.20;1.77;;;26.00;99.90;;;;;;7299571;32;20122;-56
2023/09/12 11:23:17;;;;;;;3.08;2.22;;;26.00;99.90;;;;;;7293143;32;20226;-56
2023/09/12 11:27:19;;;;;;;3.33;2.50;;;26.00;99.90;;;;;;7300410;32;20110;-56
2023/09/12 11:31:26;;;;;;;3.87;2.75;;;25.50;99.90;;;;;;7295528;32;20154;-57
2023/09/12 11:35:29;;;;;;;3.83;2.97;;;25.20;99.90;;;;;;7296347;32;20254;-54
2023/09/12 11:39:33;;;;;;;5.68;3.42;;;25.30;99.90;;;;;;7299151;32;20453;-55
2023/09/12 11:43:38;;;;;;;4.97;2.97;;;25.20;99.90;;;;;;7297172;32;20099;-54
2023/09/12 11:47:44;;;;;;;4.32;3.05;;;24.80;99.90;;;;;;7310494;32;20729;-55
2023/09/12 11:51:54;;;;;;;6.32;2.85;;;24.40;99.90;;;;;;7309215;32;20105;-55
2023/09/12 11:55:59;;;;;;;3.60;2.37;;;24.00;99.90;;;;;;7310958;32;20211;-56
2023/09/12 12:00:08;;;;;;;3.97;2.95;;;24.10;99.90;;;;;;7308177;32;20123;-55
2023/09/12 12:04:10;;;;;;;3.87;2.72;;;24.40;99.90;;;;;;7317167;32;20111;-56
2023/09/12 12:08:13;;;;;;;6.18;2.80;;;24.40;99.90;;;;;;7310190;32;20207;-56
2023/09/12 12:12:31;;;;;;;4.25;2.78;;;24.40;99.90;;;;;;7301476;32;20235;-56
2023/09/12 12:16:33;;;;;;;5.20;3.70;;;24.50;99.90;;;;;;7301725;32;20096;-55
2023/09/12 12:20:35;;;;;;;3.95;2.70;;;24.50;99.90;;;;;;7299263;32;20096;-56
2023/09/12 12:24:44;;;;;;;4.03;3.03;;;24.60;99.90;;;;;;7295635;32;20104;-56
2023/09/12 12:28:46;;;;;;;5.00;3.45;;;24.70;99.90;;;;;;7299819;32;20187;-56
2023/09/12 12:32:51;;;;;;;4.82;3.40;;;24.80;99.90;;;;;;7303963;32;20289;-56
2023/09/12 12:36:54;;;;;;;6.37;3.92;;;24.60;99.90;;;;;;7301904;32;20100;-56
2023/09/12 12:41:00;;;;;;;5.47;3.42;;;24.40;99.90;;;;;;7301671;32;20608;-56
2023/09/12 12:45:02;;;;;;;4.40;3.78;;;24.50;99.90;;;;;;7302230;32;20201;-56
2023/09/12 12:49:05;;;;;;;4.70;3.35;;;24.90;99.90;;;;;;7302942;32;20266;-56
2023/09/12 12:53:07;;;;;;;5.28;3.47;;;24.80;99.90;;;;;;7301086;32;20170;-56
2023/09/12 12:57:12;;;;;;;5.47;3.08;;;25.00;99.90;;;;;;7299178;32;20169;-56
2023/09/12 13:01:15;;;;;;;3.37;3.08;;;25.40;99.90;;;;;;7298466;32;20232;-57
2023/09/12 13:05:29;;;;;;;5.05;3.17;;;25.50;99.90;;;;;;7300866;32;20104;-56
2023/09/12 13:09:31;;;;;;;4.28;2.50;;;25.60;99.90;;;;;;7300077;32;20234;-55
2023/09/12 13:13:33;;;;;;;3.78;2.70;;;25.60;99.90;;;;;;7299399;32;20689;-55
2023/09/12 13:17:35;;;;;;;3.67;2.65;;;25.30;99.90;;;;;;7308136;32;20473;-56
2023/09/12 13:21:37;;;;;;;4.45;3.00;;;25.20;99.90;;;;;;7301611;32;20095;-56
2023/09/12 13:25:39;;;;;;;4.30;3.37;;;25.20;99.90;;;;;;7303002;32;20430;-56
2023/09/12 13:29:41;;;;;;;3.85;3.12;;;25.40;99.90;;;;;;7300959;32;20122;-57
2023/09/12 13:33:42;;;;;;;5.50;3.53;;;25.30;99.90;;;;;;7299059;32;20642;-56
2023/09/12 13:37:45;;;;;;;5.80;3.37;;;24.80;99.90;;;;;;7299752;32;20162;-56
2023/09/12 13:41:47;;;;;;;4.87;3.90;;;24.70;99.90;;;;;;7296819;32;20629;-56
2023/09/12 13:45:48;;;;;;;5.62;3.92;;;24.90;99.90;;;;;;7299878;32;20100;-56
2023/09/12 13:49:53;;;;;;;6.07;3.67;;;25.40;99.90;;;;;;7300072;32;20104;-56
2023/09/12 13:53:55;;;;;;;4.65;3.42;;;25.50;99.90;;;;;;7295939;32;20776;-56
2023/09/12 13:57:57;;;;;;;3.85;3.50;;;25.60;99.90;;;;;;7304234;32;20108;-56
2023/09/12 14:01:59;;;;;;;6.68;3.95;;;25.50;99.90;;;;;;7296781;32;20100;-55
2023/09/12 14:06:01;;;;;;;7.07;4.22;;;25.60;99.90;;;;;;7299810;32;20587;-53
2023/09/12 14:10:03;;;;;;;5.00;4.50;;;25.60;99.90;;;;;;7299685;32;20253;-54
2023/09/12 14:14:05;;;;;;;5.72;4.00;;;25.50;99.90;;;;;;7298648;32;20134;-53
2023/09/12 14:18:10;;;;;;;6.62;3.60;;;25.50;99.90;;;;;;7298059;32;20108;-53
2023/09/12 14:22:13;;;;;;;4.40;3.55;;;25.50;99.90;;;;;;7300555;32;20269;-54
2023/09/12 14:26:17;;;;;;;4.85;3.67;;;25.70;99.90;;;;;;7296744;32;20684;-53
2023/09/12 14:30:22;;;;;;;4.65;4.03;;;25.80;99.90;;;;;;7295543;32;20537;-53
2023/09/12 14:34:28;;;;;;;6.32;3.80;;;25.70;99.90;;;;;;7299216;32;20234;-53
2023/09/12 14:38:30;;;;;;;5.55;4.50;;;25.80;99.90;;;;;;7299121;32;20149;-56
2023/09/12 14:42:32;;;;;;;4.87;4.37;;;25.50;99.90;;;;;;7299447;32;20164;-53
2023/09/12 14:46:34;;;;;;;6.62;5.12;;;25.40;99.90;;;;;;7302236;32;20100;-53
2023/09/12 14:50:35;;;;;;;6.45;5.50;;;25.30;99.90;;;;;;7297998;32;20177;-53
2023/09/12 14:54:44;;;;;;;6.12;5.53;;;25.20;99.90;;;;;;7298572;32;20108;-54
2023/09/12 14:58:46;;;;;;;7.43;5.97;;;25.30;99.90;;;;;;7304637;32;20588;-52
2023/09/12 15:02:47;;;;;;;8.00;6.07;;;25.10;99.90;;;;;;7300458;32;20491;-53
2023/09/12 15:06:49;;;;;;;7.12;5.70;;;25.10;99.90;;;;;;7298998;32;20145;-55
2023/09/12 15:10:54;;;;;;;9.15;5.25;;;24.80;99.90;;;;;;7292704;32;20371;-53
2023/09/12 15:14:55;;;;;;;6.68;5.97;;;24.60;99.90;;;;;;7297372;32;20119;-53
2023/09/12 15:18:57;;;;;;;7.50;6.22;;;24.60;99.90;;;;;;7294849;32;20100;-57
2023/09/12 15:22:59;;;;;;;8.48;6.00;;;24.20;99.90;;;;;;7286793;32;20185;-56
2023/09/12 15:27:00;;;;;;;6.85;6.25;;;24.10;99.90;;;;;;7300790;32;20103;-55
2023/09/12 15:31:04;;;;;;;7.05;6.45;;;23.90;99.90;;;;;;7301690;32;20310;-57
2023/09/12 15:35:07;;;;;;;8.98;8.10;;;23.80;99.90;;;;;;7297127;32;20161;-56
2023/09/12 15:39:09;;;;;;;8.48;7.20;;;23.60;99.90;;;;;;7298668;32;20100;-56
2023/09/12 15:43:11;;;;;;;8.10;7.30;;;23.60;99.90;;;;;;7297357;32;20088;-56
2023/09/12 15:47:25;;;;;;;8.82;7.65;;;23.70;99.90;;;;;;7292439;32;20118;-56
2023/09/12 15:51:27;;;;;;;8.45;7.65;;;23.70;99.90;;;;;;7295725;32;20123;-57
2023/09/12 15:55:29;;;;;;;9.05;7.55;;;23.50;99.90;;;;;;7285031;32;20191;-57
2023/09/12 15:59:31;;;;;;;8.35;7.15;;;23.50;99.90;;;;;;7295133;32;20175;-56
2023/09/12 16:03:33;;;;;;;8.70;7.53;;;23.40;99.90;;;;;;7294274;32;20704;-57
2023/09/12 16:07:36;;;;;;;8.38;7.32;;;23.40;99.90;;;;;;7299981;32;20269;-57
2023/09/12 16:11:38;;;;;;;8.98;7.93;;;23.30;99.90;;;;;;7298733;32;20130;-56
2023/09/12 16:15:39;;;;;;;8.93;8.10;;;23.30;99.90;;;;;;7298720;32;20364;-56
2023/09/12 16:19:41;;;;;;;11.65;8.27;;;23.20;99.90;;;;;;7284451;32;20201;-56
2023/09/12 16:23:43;;;;;;;10.00;8.13;;;23.10;99.90;;;;;;7305206;32;20115;-56
2023/09/12 16:27:45;;;;;;;9.38;7.90;;;23.10;99.90;;;;;;7311005;32;20107;-55
2023/09/12 16:31:47;;;;;;;8.95;8.05;;;22.90;99.90;;;;;;7321683;32;20123;-55
2023/09/12 16:35:49;;;;;;;9.02;8.13;;;22.80;99.90;;;;;;7320109;32;20306;-55
2023/09/12 16:39:51;;;;;;;8.68;7.78;;;22.70;99.90;;;;;;7305118;32;20167;-55
2023/09/12 16:43:53;;;;;;;9.60;8.55;;;22.70;99.90;;;;;;7301611;32;20202;-53
2023/09/12 16:47:55;;;;;;;9.98;8.18;;;22.60;99.90;;;;;;7314942;32;20208;-54
2023/09/12 16:51:56;;;;;;;10.18;8.77;;;22.50;99.90;;;;;;7311934;32;20207;-54
2023/09/12 16:56:02;;;;;;;10.00;8.75;;;22.50;99.90;;;;;;7310358;32;20453;-56
2023/09/12 17:00:05;;;;;;;8.75;7.85;;;22.30;99.90;;;;;;7301358;32;20252;-56
2023/09/12 17:04:07;;;;;;;8.80;7.90;;;22.40;99.90;;;;;;7307809;32;20500;-55
2023/09/12 17:08:09;;;;;;;8.73;7.32;;;22.20;99.90;;;;;;7308687;32;20173;-56
2023/09/12 17:12:12;;;;;;;8.15;7.35;;;22.10;99.90;;;;;;7301513;32;20202;-55
2023/09/12 17:16:15;;;;;;;7.80;7.00;;;22.00;99.90;;;;;;7294954;32;20202;-56
2023/09/12 17:20:17;;;;;;;9.95;7.78;;;21.90;99.90;;;;;;7282844;32;20765;-56
2023/09/12 17:24:19;;;;;;;7.90;7.10;;;21.80;99.90;;;;;;7284325;32;20175;-56
2023/09/12 17:28:20;;;;;;;7.32;6.62;;;21.70;99.90;;;;;;7297600;32;20176;-56
2023/09/12 17:32:23;;;;;;;11.90;7.85;;;21.60;99.90;;;;;;7300949;32;20131;-56
2023/09/12 17:36:25;;;;;;;9.88;8.32;;;21.50;99.90;;;;;;7303603;32;20237;-56
2023/09/12 17:40:27;;;;;;;9.20;7.85;;;21.40;99.90;;;;;;7296925;32;20135;-56
2023/09/12 17:44:29;;;;;;;10.55;7.43;;;21.40;99.90;;;;;;7299710;32;20568;-57
2023/09/12 17:48:31;;;;;;;11.18;7.50;;;21.30;99.90;;;;;;7283993;32;20108;-56
2023/09/12 17:52:33;;;;;;;11.00;7.50;;;21.30;99.90;;;;;;7294516;32;20235;-56
2023/09/12 17:56:35;;;;;;;9.02;8.02;;;21.20;99.90;;;;;;7292882;32;20116;-56
2023/09/12 18:00:36;;;;;;;11.00;8.90;;;21.10;99.90;;;;;;7295793;32;20263;-56
2023/09/12 18:04:39;;;;;;;9.45;8.55;;;21.00;99.90;;;;;;7296829;32;20691;-57
2023/09/12 18:08:41;;;;;;;10.10;8.63;;;20.90;99.90;;;;;;7296273;32;20104;-55
2023/09/12 18:12:43;;;;;;;11.60;8.73;;;20.80;99.90;;;;;;7297050;32;20771;-55
2023/09/12 18:16:45;;;;;;;10.00;9.00;;;20.70;99.90;;;;;;7295635;32;20470;-55
2023/09/12 18:20:47;;;;;;;10.05;8.68;;;20.60;99.90;;;;;;7292661;32;20535;-55
2023/09/12 18:24:49;;;;;;;11.75;8.80;;;20.50;99.90;;;;;;7285381;32;20127;-55
2023/09/12 18:28:51;;;;;;;10.75;9.40;;;20.50;99.90;;;;;;7276650;32;21538;-54
2023/09/12 18:32:56;;;;;;;11.85;9.52;;;20.40;99.90;;;;;;7292029;32;20313;-55
2023/09/12 18:36:58;;;;;;;13.88;11.32;;;20.30;99.90;;;;;;7297110;32;20107;-55
2023/09/12 18:41:00;;;;;;;11.63;10.15;;;20.30;99.90;;;;;;7292020;32;20622;-55
2023/09/12 18:45:02;;;;;;;13.57;9.82;;;20.20;99.90;;;;;;7293270;32;20602;-55
2023/09/12 18:49:04;;;;;;;12.05;9.82;;;20.20;99.90;;;;;;7298027;32;20703;-55
2023/09/12 18:53:10;;;;;;;11.52;10.30;;;20.10;99.90;;;;;;7295034;32;20594;-54
2023/09/12 18:57:12;;;;;;;14.87;9.23;;;20.10;99.90;;;;;;7307056;32;20143;-55
2023/09/12 19:01:15;;;;;;;12.35;10.55;;;20.00;99.90;;;;;;7296861;32;20921;-55
2023/09/12 19:05:17;;;;;;;11.10;9.20;;;19.90;99.90;;;;;;7294861;32;20221;-55
2023/09/12 19:09:19;;;;;;;11.95;9.98;;;19.90;99.90;;;;;;7276450;32;20124;-55
2023/09/12 19:13:21;;;;;;;12.63;10.43;;;20.00;99.90;;;;;;7295499;32;20202;-55
2023/09/12 19:17:23;;;;;;;12.98;9.38;;;20.00;99.90;;;;;;7295591;32;20295;-55
2023/09/12 19:21:24;;;;;;;11.98;9.57;;;19.90;99.90;;;;;;7303137;32;20664;-56
2023/09/12 19:25:26;;;;;;;12.32;10.40;;;19.90;99.90;;;;;;7299024;32;20147;-55
2023/09/12 19:29:28;;;;;;;11.95;10.68;;;19.90;99.90;;;;;;7298098;32;20108;-55
2023/09/12 19:33:30;;;;;;;12.70;10.38;;;19.90;99.90;;;;;;7299181;32;20586;-55
2023/09/12 19:37:33;;;;;;;16.00;11.30;;;19.80;99.90;;;;;;7302755;32;20111;-55
2023/09/12 19:41:35;;;;;;;14.30;11.73;;;19.70;99.90;;;;;;7296603;32;20554;-56
2023/09/12 19:45:38;;;;;;;19.50;13.85;;;19.80;99.90;;;;;;7293007;32;20116;-55
2023/09/12 19:49:41;;;;;;;17.87;13.45;;;19.70;99.90;;;;;;7296735;32;20136;-56
2023/09/12 19:53:42;;;;;;;20.25;14.40;;;19.70;99.90;;;;;;7292262;32;20584;-56
2023/09/12 19:57:45;;;;;;;22.37;15.80;;;19.80;99.90;;;;;;7293391;32;20611;-56
2023/09/12 20:01:48;;;;;;;20.60;15.27;;;19.80;99.90;;;;;;7296463;32;20206;-57
2023/09/12 20:05:50;;;;;;;18.33;13.13;;;19.70;99.90;;;;;;7301659;32;20104;-57
2023/09/12 20:09:52;;;;;;;16.10;13.27;;;19.60;99.90;;;;;;7300551;32;20295;-55
2023/09/12 20:13:53;;;;;;;16.37;12.82;;;19.60;99.90;;;;;;7301448;32;20164;-56
2023/09/12 20:18:06;;;;;;;16.35;12.20;;;19.50;99.90;;;;;;7303326;32;20246;-56
2023/09/12 20:22:08;;;;;;;16.37;12.35;;;19.50;99.90;;;;;;7296403;32;20165;-57
2023/09/12 20:26:09;;;;;;;18.00;14.25;;;19.50;99.90;;;;;;7298942;32;20595;-57
2023/09/12 20:30:12;;;;;;;19.08;13.77;;;19.60;99.90;;;;;;7298527;32;20312;-57
2023/09/12 20:34:14;;;;;;;20.90;15.60;;;19.50;99.90;;;;;;7297760;32;20597;-56
2023/09/12 20:38:16;;;;;;;23.73;17.15;;;19.40;99.90;;;;;;7299117;32;20209;-56
2023/09/12 20:42:18;;;;;;;23.17;15.10;;;19.50;99.90;;;;;;7298940;32;20120;-56
2023/09/12 20:46:20;;;;;;;23.08;14.40;;;19.40;99.90;;;;;;7298388;32;20235;-57
2023/09/12 20:50:26;;;;;;;19.37;15.25;;;19.40;99.90;;;;;;7299703;32;20648;-57